sensor_id;sensor_type;location;lat;lon;timestamp;pressure;altitude;pressure_sealevel;temperature;humidity
55916;BME280;41826;53.246;-6.670;2022-12-16T00:01:47;99632.25;;;-3.29;100.00
55916;BME280;41826;53.246;-6.670;2022-12-16T00:04:12;99630.91;;;-3.36;100.00
55916;BME280;41826;53.246;-6.670;2022-12-16T00:06:37;99631.75;;;-3.35;100.00
55916;BME280;41826;53.246;-6.670;2022-12-16T00:09:03;99624.78;;;-3.33;100.00
55916;BME280;41826;53.246;-6.670;2022-12-16T00:11:28;99614.38;;;-3.30;100.00
55916;BME280;41826;53.246;-6.670;2022-12-16T00:13:56;99612.63;;;-3.30;100.00
55916;BME280;41826;53.246;-6.670;2022-12-16T00:16:21;99616.84;;;-3.29;100.00
55916;BME280;41826;53.246;-6.670;2022-12-16T00:18:47;99614.19;;;-3.27;100.00
55916;BME280;41826;53.246;-6.670;2022-12-16T00:21:13;99609.81;;;-3.25;100.00
55916;BME280;41826;53.246;-6.670;2022-12-16T00:23:39;99602.78;;;-3.21;100.00
55916;BME280;41826;53.246;-6.670;2022-12-16T00:26:06;99602.78;;;-3.21;100.00
55916;BME280;41826;53.246;-6.670;2022-12-16T00:28:32;99591.69;;;-3.22;100.00
55916;BME280;41826;53.246;-6.670;2022-12-16T00:30:58;99590.59;;;-3.18;100.00
55916;BME280;41826;53.246;-6.670;2022-12-16T00:33:26;99598.81;;;-3.11;100.00
55916;BME280;41826;53.246;-6.670;2022-12-16T00:35:52;99585.63;;;-3.05;100.00
55916;BME280;41826;53.246;-6.670;2022-12-16T00:38:18;99586.28;;;-3.01;100.00
55916;BME280;41826;53.246;-6.670;2022-12-16T00:40:44;99580.41;;;-3.03;100.00
55916;BME280;41826;53.246;-6.670;2022-12-16T00:43:09;99576.69;;;-2.98;100.00
55916;BME280;41826;53.246;-6.670;2022-12-16T00:45:35;99568.97;;;-2.98;100.00
55916;BME280;41826;53.246;-6.670;2022-12-16T00:48:01;99570.63;;;-2.97;100.00
55916;BME280;41826;53.246;-6.670;2022-12-16T00:50:27;99567.97;;;-2.95;100.00
55916;BME280;41826;53.246;-6.670;2022-12-16T00:52:52;99571.19;;;-2.92;100.00
55916;BME280;41826;53.246;-6.670;2022-12-16T00:55:18;99566.81;;;-2.90;100.00
55916;BME280;41826;53.246;-6.670;2022-12-16T00:57:44;99560.50;;;-2.84;100.00
55916;BME280;41826;53.246;-6.670;2022-12-16T01:00:11;99572.44;;;-2.83;100.00
55916;BME280;41826;53.246;-6.670;2022-12-16T01:02:41;99579.97;;;-2.80;100.00
55916;BME280;41826;53.246;-6.670;2022-12-16T01:05:08;99570.31;;;-2.76;100.00
55916;BME280;41826;53.246;-6.670;2022-12-16T01:07:35;99568.59;;;-2.76;100.00
55916;BME280;41826;53.246;-6.670;2022-12-16T01:10:00;99570.44;;;-2.78;100.00
55916;BME280;41826;53.246;-6.670;2022-12-16T01:12:27;99556.78;;;-2.78;100.00
55916;BME280;41826;53.246;-6.670;2022-12-16T01:14:54;99560.06;;;-2.76;100.00
55916;BME280;41826;53.246;-6.670;2022-12-16T01:17:19;99544.00;;;-2.80;100.00
55916;BME280;41826;53.246;-6.670;2022-12-16T01:19:45;99531.47;;;-2.70;100.00
55916;BME280;41826;53.246;-6.670;2022-12-16T01:22:10;99524.31;;;-2.65;100.00
55916;BME280;41826;53.246;-6.670;2022-12-16T01:24:36;99527.44;;;-2.60;100.00
55916;BME280;41826;53.246;-6.670;2022-12-16T01:27:02;99526.34;;;-2.70;100.00
55916;BME280;41826;53.246;-6.670;2022-12-16T01:29:27;99535.22;;;-2.76;100.00
55916;BME280;41826;53.246;-6.670;2022-12-16T01:31:53;99543.38;;;-2.84;100.00
55916;BME280;41826;53.246;-6.670;2022-12-16T01:34:18;99557.78;;;-2.81;100.00
55916;BME280;41826;53.246;-6.670;2022-12-16T01:36:43;99552.97;;;-2.87;100.00
55916;BME280;41826;53.246;-6.670;2022-12-16T01:39:10;99563.28;;;-2.73;100.00
55916;BME280;41826;53.246;-6.670;2022-12-16T01:41:36;99554.53;;;-2.85;100.00
55916;BME280;41826;53.246;-6.670;2022-12-16T01:44:19;99559.22;;;-3.07;100.00
55916;BME280;41826;53.246;-6.670;2022-12-16T01:46:50;99556.88;;;-3.12;100.00
55916;BME280;41826;53.246;-6.670;2022-12-16T01:49:29;99554.50;;;-3.15;100.00
55916;BME280;41826;53.246;-6.670;2022-12-16T01:52:01;99553.69;;;-3.15;100.00
55916;BME280;41826;53.246;-6.670;2022-12-16T01:54:35;99555.75;;;-3.06;100.00
55916;BME280;41826;53.246;-6.670;2022-12-16T01:57:07;99561.72;;;-3.21;100.00
55916;BME280;41826;53.246;-6.670;2022-12-16T01:59:35;99570.50;;;-3.25;100.00
55916;BME280;41826;53.246;-6.670;2022-12-16T02:02:03;99570.66;;;-3.29;100.00
55916;BME280;41826;53.246;-6.670;2022-12-16T02:04:29;99570.66;;;-3.44;100.00
55916;BME280;41826;53.246;-6.670;2022-12-16T02:06:59;99561.06;;;-3.41;100.00
55916;BME280;41826;53.246;-6.670;2022-12-16T02:09:24;99566.19;;;-3.41;100.00
55916;BME280;41826;53.246;-6.670;2022-12-16T02:12:06;99552.03;;;-3.32;100.00
55916;BME280;41826;53.246;-6.670;2022-12-16T02:17:58;99530.69;;;-3.49;100.00
55916;BME280;41826;53.246;-6.670;2022-12-16T02:31:30;99494.50;;;-3.28;100.00
55916;BME280;41826;53.246;-6.670;2022-12-16T02:39:39;99499.13;;;-3.19;100.00
55916;BME280;41826;53.246;-6.670;2022-12-16T02:42:13;99508.28;;;-3.15;100.00
55916;BME280;41826;53.246;-6.670;2022-12-16T02:47:25;99498.72;;;-3.11;100.00
55916;BME280;41826;53.246;-6.670;2022-12-16T02:49:52;99508.03;;;-3.10;100.00
55916;BME280;41826;53.246;-6.670;2022-12-16T02:52:22;99495.13;;;-3.09;100.00
55916;BME280;41826;53.246;-6.670;2022-12-16T02:54:57;99481.19;;;-3.05;100.00
55916;BME280;41826;53.246;-6.670;2022-12-16T02:57:40;99464.16;;;-3.06;100.00
55916;BME280;41826;53.246;-6.670;2022-12-16T03:00:18;99476.16;;;-3.06;100.00
55916;BME280;41826;53.246;-6.670;2022-12-16T03:02:59;99452.22;;;-3.07;100.00
55916;BME280;41826;53.246;-6.670;2022-12-16T03:05:33;99453.69;;;-3.02;100.00
55916;BME280;41826;53.246;-6.670;2022-12-16T03:08:04;99462.16;;;-3.00;100.00
55916;BME280;41826;53.246;-6.670;2022-12-16T03:10:40;99801.69;;;-2.97;100.00
55916;BME280;41826;53.246;-6.670;2022-12-16T03:13:09;99829.78;;;-2.94;100.00
55916;BME280;41826;53.246;-6.670;2022-12-16T03:15:37;99836.41;;;-2.90;100.00
55916;BME280;41826;53.246;-6.670;2022-12-16T03:18:04;99838.69;;;-2.84;100.00
55916;BME280;41826;53.246;-6.670;2022-12-16T03:20:40;99843.97;;;-2.87;100.00
55916;BME280;41826;53.246;-6.670;2022-12-16T03:23:11;99844.06;;;-2.88;100.00
55916;BME280;41826;53.246;-6.670;2022-12-16T03:25:41;99843.13;;;-2.87;100.00
55916;BME280;41826;53.246;-6.670;2022-12-16T03:28:14;99863.69;;;-2.87;100.00
55916;BME280;41826;53.246;-6.670;2022-12-16T03:30:52;99871.22;;;-2.84;100.00
55916;BME280;41826;53.246;-6.670;2022-12-16T03:33:24;99871.16;;;-2.83;100.00
55916;BME280;41826;53.246;-6.670;2022-12-16T03:35:58;99879.78;;;-2.84;100.00
55916;BME280;41826;53.246;-6.670;2022-12-16T03:38:26;99892.69;;;-2.85;100.00
55916;BME280;41826;53.246;-6.670;2022-12-16T03:40:54;99893.50;;;-2.85;100.00
55916;BME280;41826;53.246;-6.670;2022-12-16T03:43:20;99898.66;;;-2.85;100.00
55916;BME280;41826;53.246;-6.670;2022-12-16T03:45:50;99904.63;;;-2.84;100.00
55916;BME280;41826;53.246;-6.670;2022-12-16T03:48:22;99895.19;;;-2.84;100.00
55916;BME280;41826;53.246;-6.670;2022-12-16T03:50:47;99898.50;;;-2.81;100.00
55916;BME280;41826;53.246;-6.670;2022-12-16T03:53:13;99907.78;;;-2.79;100.00
55916;BME280;41826;53.246;-6.670;2022-12-16T03:55:38;99897.44;;;-2.77;100.00
55916;BME280;41826;53.246;-6.670;2022-12-16T03:58:04;99906.72;;;-2.75;100.00
55916;BME280;41826;53.246;-6.670;2022-12-16T04:00:29;99895.41;;;-2.71;100.00
55916;BME280;41826;53.246;-6.670;2022-12-16T04:02:55;99904.69;;;-2.68;100.00
55916;BME280;41826;53.246;-6.670;2022-12-16T04:05:21;99911.41;;;-2.66;100.00
55916;BME280;41826;53.246;-6.670;2022-12-16T04:07:47;99914.69;;;-2.64;100.00
55916;BME280;41826;53.246;-6.670;2022-12-16T04:10:13;99925.88;;;-2.65;100.00
55916;BME280;41826;53.246;-6.670;2022-12-16T04:12:38;99934.34;;;-2.63;100.00
55916;BME280;41826;53.246;-6.670;2022-12-16T04:15:22;99942.81;;;-2.60;100.00
55916;BME280;41826;53.246;-6.670;2022-12-16T04:18:14;99937.53;;;-2.57;100.00
55916;BME280;41826;53.246;-6.670;2022-12-16T04:21:00;99956.25;;;-2.55;100.00
55916;BME280;41826;53.246;-6.670;2022-12-16T04:23:50;99942.56;;;-2.56;100.00
55916;BME280;41826;53.246;-6.670;2022-12-16T04:26:35;99940.53;;;-2.49;100.00
55916;BME280;41826;53.246;-6.670;2022-12-16T04:29:20;99943.75;;;-2.46;100.00
55916;BME280;41826;53.246;-6.670;2022-12-16T04:31:46;99944.59;;;-2.45;100.00
55916;BME280;41826;53.246;-6.670;2022-12-16T04:34:11;99941.34;;;-2.49;100.00
55916;BME280;41826;53.246;-6.670;2022-12-16T04:36:57;99947.31;;;-2.48;100.00
55916;BME280;41826;53.246;-6.670;2022-12-16T04:39:42;99946.31;;;-2.46;100.00
55916;BME280;41826;53.246;-6.670;2022-12-16T04:42:26;99948.47;;;-2.54;100.00
55916;BME280;41826;53.246;-6.670;2022-12-16T04:45:10;99962.63;;;-2.63;100.00
55916;BME280;41826;53.246;-6.670;2022-12-16T04:47:54;99962.19;;;-2.71;100.00
55916;BME280;41826;53.246;-6.670;2022-12-16T04:50:39;99959.00;;;-2.76;100.00
55916;BME280;41826;53.246;-6.670;2022-12-16T04:53:26;99963.91;;;-2.71;100.00
55916;BME280;41826;53.246;-6.670;2022-12-16T04:56:10;99968.97;;;-2.70;100.00
55916;BME280;41826;53.246;-6.670;2022-12-16T04:58:54;99968.75;;;-2.83;100.00
55916;BME280;41826;53.246;-6.670;2022-12-16T05:01:38;99967.59;;;-2.77;100.00
55916;BME280;41826;53.246;-6.670;2022-12-16T05:04:21;99977.59;;;-2.88;100.00
55916;BME280;41826;53.246;-6.670;2022-12-16T05:07:05;99978.66;;;-2.92;100.00
55916;BME280;41826;53.246;-6.670;2022-12-16T05:09:49;99981.44;;;-2.79;100.00
55916;BME280;41826;53.246;-6.670;2022-12-16T05:12:33;99978.19;;;-2.66;100.00
55916;BME280;41826;53.246;-6.670;2022-12-16T05:15:17;99977.59;;;-2.71;100.00
55916;BME280;41826;53.246;-6.670;2022-12-16T05:18:13;99978.31;;;-2.86;100.00
55916;BME280;41826;53.246;-6.670;2022-12-16T05:21:01;99974.25;;;-3.08;100.00
55916;BME280;41826;53.246;-6.670;2022-12-16T05:23:46;99977.19;;;-3.15;100.00
55916;BME280;41826;53.246;-6.670;2022-12-16T05:26:30;99974.75;;;-3.36;100.00
55916;BME280;41826;53.246;-6.670;2022-12-16T05:29:14;99976.03;;;-3.27;100.00
55916;BME280;41826;53.246;-6.670;2022-12-16T05:31:58;99990.56;;;-2.91;100.00
55916;BME280;41826;53.246;-6.670;2022-12-16T05:34:42;99984.69;;;-3.11;100.00
55916;BME280;41826;53.246;-6.670;2022-12-16T05:37:25;99987.56;;;-2.99;100.00
55916;BME280;41826;53.246;-6.670;2022-12-16T05:40:10;99983.94;;;-3.13;100.00
55916;BME280;41826;53.246;-6.670;2022-12-16T05:42:55;99984.22;;;-3.19;100.00
55916;BME280;41826;53.246;-6.670;2022-12-16T05:45:39;99988.88;;;-3.27;100.00
55916;BME280;41826;53.246;-6.670;2022-12-16T05:48:24;99987.66;;;-3.37;100.00
55916;BME280;41826;53.246;-6.670;2022-12-16T05:51:08;99983.59;;;-3.41;100.00
55916;BME280;41826;53.246;-6.670;2022-12-16T05:53:52;99988.31;;;-3.70;100.00
55916;BME280;41826;53.246;-6.670;2022-12-16T05:56:36;99997.03;;;-3.55;100.00
55916;BME280;41826;53.246;-6.670;2022-12-16T05:59:20;99993.31;;;-3.86;100.00
55916;BME280;41826;53.246;-6.670;2022-12-16T06:02:04;99993.63;;;-3.92;100.00
55916;BME280;41826;53.246;-6.670;2022-12-16T06:04:48;99993.66;;;-3.56;100.00
55916;BME280;41826;53.246;-6.670;2022-12-16T06:07:32;99999.41;;;-3.51;100.00
55916;BME280;41826;53.246;-6.670;2022-12-16T06:10:16;99995.91;;;-3.50;100.00
55916;BME280;41826;53.246;-6.670;2022-12-16T06:13:00;99996.41;;;-3.41;100.00
55916;BME280;41826;53.246;-6.670;2022-12-16T06:15:45;99997.53;;;-3.11;100.00
55916;BME280;41826;53.246;-6.670;2022-12-16T06:18:29;99999.47;;;-3.16;100.00
55916;BME280;41826;53.246;-6.670;2022-12-16T06:21:12;99990.72;;;-3.29;100.00
55916;BME280;41826;53.246;-6.670;2022-12-16T06:23:56;99987.38;;;-3.31;100.00
55916;BME280;41826;53.246;-6.670;2022-12-16T06:26:40;99986.56;;;-3.51;100.00
55916;BME280;41826;53.246;-6.670;2022-12-16T06:29:24;99979.13;;;-3.74;100.00
55916;BME280;41826;53.246;-6.670;2022-12-16T06:32:08;99970.63;;;-3.57;100.00
55916;BME280;41826;53.246;-6.670;2022-12-16T06:34:52;99977.38;;;-3.74;100.00
55916;BME280;41826;53.246;-6.670;2022-12-16T06:37:36;99972.56;;;-3.80;100.00
55916;BME280;41826;53.246;-6.670;2022-12-16T06:40:20;99970.41;;;-3.89;100.00
55916;BME280;41826;53.246;-6.670;2022-12-16T06:43:03;99963.06;;;-3.97;100.00
55916;BME280;41826;53.246;-6.670;2022-12-16T06:45:47;99954.09;;;-4.26;100.00
55916;BME280;41826;53.246;-6.670;2022-12-16T06:48:31;99953.75;;;-4.37;100.00
55916;BME280;41826;53.246;-6.670;2022-12-16T06:51:15;99949.47;;;-4.57;100.00
55916;BME280;41826;53.246;-6.670;2022-12-16T06:53:59;99938.75;;;-4.65;100.00
55916;BME280;41826;53.246;-6.670;2022-12-16T06:56:43;99940.53;;;-4.67;100.00
55916;BME280;41826;53.246;-6.670;2022-12-16T06:59:27;99937.84;;;-4.64;100.00
55916;BME280;41826;53.246;-6.670;2022-12-16T07:02:11;99930.25;;;-4.66;100.00
55916;BME280;41826;53.246;-6.670;2022-12-16T07:04:55;99939.38;;;-4.60;100.00
55916;BME280;41826;53.246;-6.670;2022-12-16T07:07:46;99934.63;;;-4.69;100.00
55916;BME280;41826;53.246;-6.670;2022-12-16T07:10:30;99934.13;;;-4.57;100.00
55916;BME280;41826;53.246;-6.670;2022-12-16T07:13:14;99939.69;;;-4.47;100.00
55916;BME280;41826;53.246;-6.670;2022-12-16T07:15:58;99936.16;;;-4.45;100.00
55916;BME280;41826;53.246;-6.670;2022-12-16T07:18:42;99924.34;;;-4.68;100.00
55916;BME280;41826;53.246;-6.670;2022-12-16T07:21:26;99913.34;;;-4.51;100.00
55916;BME280;41826;53.246;-6.670;2022-12-16T07:24:11;99909.63;;;-4.44;100.00
55916;BME280;41826;53.246;-6.670;2022-12-16T07:26:55;99910.13;;;-4.17;100.00
55916;BME280;41826;53.246;-6.670;2022-12-16T07:29:39;99898.88;;;-4.33;100.00
55916;BME280;41826;53.246;-6.670;2022-12-16T07:32:23;99897.53;;;-4.40;100.00
55916;BME280;41826;53.246;-6.670;2022-12-16T07:35:07;99901.06;;;-4.43;100.00
55916;BME280;41826;53.246;-6.670;2022-12-16T07:37:51;99889.81;;;-4.59;100.00
55916;BME280;41826;53.246;-6.670;2022-12-16T07:40:35;99874.25;;;-4.54;100.00
55916;BME280;41826;53.246;-6.670;2022-12-16T07:43:19;99866.84;;;-4.42;100.00
55916;BME280;41826;53.246;-6.670;2022-12-16T07:46:03;99857.06;;;-4.33;100.00
55916;BME280;41826;53.246;-6.670;2022-12-16T07:48:47;99857.38;;;-3.84;100.00
55916;BME280;41826;53.246;-6.670;2022-12-16T07:51:31;99838.47;;;-4.01;100.00
55916;BME280;41826;53.246;-6.670;2022-12-16T07:54:15;99827.66;;;-3.88;100.00
55916;BME280;41826;53.246;-6.670;2022-12-16T07:56:59;99815.41;;;-4.56;100.00
55916;BME280;41826;53.246;-6.670;2022-12-16T07:59:44;99802.25;;;-4.48;100.00
55916;BME280;41826;53.246;-6.670;2022-12-16T08:02:28;99799.06;;;-4.72;100.00
55916;BME280;41826;53.246;-6.670;2022-12-16T08:05:12;99794.50;;;-4.85;100.00
55916;BME280;41826;53.246;-6.670;2022-12-16T08:07:56;99791.81;;;-4.63;100.00
55916;BME280;41826;53.246;-6.670;2022-12-16T08:10:40;99790.00;;;-4.80;100.00
55916;BME280;41826;53.246;-6.670;2022-12-16T08:13:24;99787.50;;;-5.00;100.00
55916;BME280;41826;53.246;-6.670;2022-12-16T08:16:08;99784.22;;;-4.83;100.00
55916;BME280;41826;53.246;-6.670;2022-12-16T08:18:52;99781.28;;;-4.94;100.00
55916;BME280;41826;53.246;-6.670;2022-12-16T08:21:36;99780.41;;;-4.93;100.00
55916;BME280;41826;53.246;-6.670;2022-12-16T08:24:19;99782.31;;;-4.80;100.00
55916;BME280;41826;53.246;-6.670;2022-12-16T08:27:03;99779.28;;;-4.88;100.00
55916;BME280;41826;53.246;-6.670;2022-12-16T08:29:47;99780.06;;;-4.86;100.00
55916;BME280;41826;53.246;-6.670;2022-12-16T08:32:31;99777.22;;;-4.80;100.00
55916;BME280;41826;53.246;-6.670;2022-12-16T08:35:15;99771.81;;;-4.73;100.00
55916;BME280;41826;53.246;-6.670;2022-12-16T08:37:59;99780.59;;;-4.60;100.00
55916;BME280;41826;53.246;-6.670;2022-12-16T08:40:43;99771.53;;;-4.67;100.00
55916;BME280;41826;53.246;-6.670;2022-12-16T08:43:32;99768.97;;;-4.67;100.00
55916;BME280;41826;53.246;-6.670;2022-12-16T08:46:17;99770.88;;;-4.71;100.00
55916;BME280;41826;53.246;-6.670;2022-12-16T08:49:02;99780.94;;;-4.49;100.00
55916;BME280;41826;53.246;-6.670;2022-12-16T08:51:47;99780.00;;;-4.29;100.00
55916;BME280;41826;53.246;-6.670;2022-12-16T08:54:30;99779.28;;;-4.50;100.00
55916;BME280;41826;53.246;-6.670;2022-12-16T08:57:14;99780.16;;;-4.51;100.00
55916;BME280;41826;53.246;-6.670;2022-12-16T08:59:59;99775.03;;;-4.51;100.00
55916;BME280;41826;53.246;-6.670;2022-12-16T09:02:43;99771.91;;;-4.20;100.00
55916;BME280;41826;53.246;-6.670;2022-12-16T09:05:27;99758.88;;;-4.15;100.00
55916;BME280;41826;53.246;-6.670;2022-12-16T09:08:11;99766.22;;;-4.26;100.00
55916;BME280;41826;53.246;-6.670;2022-12-16T09:10:59;99763.22;;;-4.17;100.00
55916;BME280;41826;53.246;-6.670;2022-12-16T09:13:43;99759.44;;;-4.27;100.00
55916;BME280;41826;53.246;-6.670;2022-12-16T09:16:27;99752.22;;;-4.19;100.00
55916;BME280;41826;53.246;-6.670;2022-12-16T09:19:11;99747.53;;;-4.11;100.00
55916;BME280;41826;53.246;-6.670;2022-12-16T09:21:55;99735.66;;;-4.12;100.00
55916;BME280;41826;53.246;-6.670;2022-12-16T09:24:39;99730.81;;;-4.01;100.00
55916;BME280;41826;53.246;-6.670;2022-12-16T09:27:24;99723.13;;;-4.18;100.00
55916;BME280;41826;53.246;-6.670;2022-12-16T09:30:13;99730.88;;;-3.85;100.00
55916;BME280;41826;53.246;-6.670;2022-12-16T09:33:00;99721.09;;;-4.11;100.00
55916;BME280;41826;53.246;-6.670;2022-12-16T09:35:45;99716.78;;;-4.11;100.00
55916;BME280;41826;53.246;-6.670;2022-12-16T09:38:29;99706.09;;;-4.02;100.00
55916;BME280;41826;53.246;-6.670;2022-12-16T09:41:26;99705.66;;;-4.10;100.00
55916;BME280;41826;53.246;-6.670;2022-12-16T09:47:16;99691.56;;;-4.01;100.00
55916;BME280;41826;53.246;-6.670;2022-12-16T09:50:05;99679.69;;;-3.86;100.00
55916;BME280;41826;53.246;-6.670;2022-12-16T09:52:59;99683.31;;;-3.90;100.00
55916;BME280;41826;53.246;-6.670;2022-12-16T09:55:44;99686.09;;;-3.78;100.00
55916;BME280;41826;53.246;-6.670;2022-12-16T09:58:52;99676.28;;;-3.69;100.00
55916;BME280;41826;53.246;-6.670;2022-12-16T10:01:37;99666.63;;;-3.64;100.00
55916;BME280;41826;53.246;-6.670;2022-12-16T10:04:23;99670.00;;;-3.64;100.00
55916;BME280;41826;53.246;-6.670;2022-12-16T10:07:16;99660.91;;;-3.69;100.00
55916;BME280;41826;53.246;-6.670;2022-12-16T10:12:52;99662.63;;;-3.70;100.00
55916;BME280;41826;53.246;-6.670;2022-12-16T10:21:35;99646.41;;;-3.71;100.00
55916;BME280;41826;53.246;-6.670;2022-12-16T10:27:17;99647.69;;;-3.62;100.00
55916;BME280;41826;53.246;-6.670;2022-12-16T10:30:11;99649.25;;;-3.59;100.00
55916;BME280;41826;53.246;-6.670;2022-12-16T10:32:57;99643.63;;;-3.50;100.00
55916;BME280;41826;53.246;-6.670;2022-12-16T10:35:45;99649.28;;;-3.43;100.00
55916;BME280;41826;53.246;-6.670;2022-12-16T10:41:18;99644.00;;;-3.40;100.00
55916;BME280;41826;53.246;-6.670;2022-12-16T10:44:06;99650.03;;;-3.41;100.00
55916;BME280;41826;53.246;-6.670;2022-12-16T10:46:55;99651.03;;;-3.28;100.00
55916;BME280;41826;53.246;-6.670;2022-12-16T10:49:39;99657.75;;;-3.25;100.00
55916;BME280;41826;53.246;-6.670;2022-12-16T10:52:25;99643.94;;;-3.23;100.00
55916;BME280;41826;53.246;-6.670;2022-12-16T10:55:30;99640.19;;;-3.01;100.00
55916;BME280;41826;53.246;-6.670;2022-12-16T10:58:49;99651.47;;;-2.88;100.00
55916;BME280;41826;53.246;-6.670;2022-12-16T11:01:34;99647.91;;;-2.86;100.00
55916;BME280;41826;53.246;-6.670;2022-12-16T11:04:28;99655.34;;;-2.81;100.00
55916;BME280;41826;53.246;-6.670;2022-12-16T11:07:35;99659.16;;;-2.72;100.00
55916;BME280;41826;53.246;-6.670;2022-12-16T11:13:34;99667.94;;;-2.76;100.00
55916;BME280;41826;53.246;-6.670;2022-12-16T11:19:10;99667.56;;;-2.54;100.00
55916;BME280;41826;53.246;-6.670;2022-12-16T11:22:15;99666.94;;;-2.74;100.00
55916;BME280;41826;53.246;-6.670;2022-12-16T11:25:13;99670.41;;;-2.75;100.00
55916;BME280;41826;53.246;-6.670;2022-12-16T11:28:18;99671.00;;;-2.70;100.00
55916;BME280;41826;53.246;-6.670;2022-12-16T11:31:09;99668.50;;;-2.55;100.00
55916;BME280;41826;53.246;-6.670;2022-12-16T11:33:56;99661.75;;;-2.42;100.00
55916;BME280;41826;53.246;-6.670;2022-12-16T11:36:44;99668.78;;;-2.30;100.00
55916;BME280;41826;53.246;-6.670;2022-12-16T11:39:30;99662.31;;;-2.37;100.00
55916;BME280;41826;53.246;-6.670;2022-12-16T11:42:23;99666.22;;;-2.15;100.00
55916;BME280;41826;53.246;-6.670;2022-12-16T11:45:18;99666.41;;;-2.19;100.00
55916;BME280;41826;53.246;-6.670;2022-12-16T11:48:30;99672.47;;;-2.20;100.00
55916;BME280;41826;53.246;-6.670;2022-12-16T11:51:17;99669.84;;;-2.04;100.00
55916;BME280;41826;53.246;-6.670;2022-12-16T11:54:23;99667.63;;;-2.10;100.00
55916;BME280;41826;53.246;-6.670;2022-12-16T11:57:55;99672.38;;;-1.73;100.00
55916;BME280;41826;53.246;-6.670;2022-12-16T12:00:43;99675.75;;;-1.44;100.00
55916;BME280;41826;53.246;-6.670;2022-12-16T12:03:40;99678.81;;;-1.66;100.00
55916;BME280;41826;53.246;-6.670;2022-12-16T12:06:32;99664.38;;;-1.69;100.00
55916;BME280;41826;53.246;-6.670;2022-12-16T12:09:26;99663.19;;;-1.63;100.00
55916;BME280;41826;53.246;-6.670;2022-12-16T12:12:25;99660.16;;;-1.56;100.00
55916;BME280;41826;53.246;-6.670;2022-12-16T12:21:29;99654.34;;;-1.31;100.00
55916;BME280;41826;53.246;-6.670;2022-12-16T12:24:44;99643.84;;;-1.27;100.00
55916;BME280;41826;53.246;-6.670;2022-12-16T12:28:06;99642.88;;;-1.54;100.00
55916;BME280;41826;53.246;-6.670;2022-12-16T12:31:11;99640.94;;;-1.36;100.00
55916;BME280;41826;53.246;-6.670;2022-12-16T12:34:04;99645.25;;;-1.36;100.00
55916;BME280;41826;53.246;-6.670;2022-12-16T12:46:44;99637.25;;;-0.90;100.00
55916;BME280;41826;53.246;-6.670;2022-12-16T12:58:16;99625.31;;;-0.91;100.00
55916;BME280;41826;53.246;-6.670;2022-12-16T13:01:19;99620.53;;;-0.97;100.00
55916;BME280;41826;53.246;-6.670;2022-12-16T13:04:21;99614.03;;;-0.76;100.00
55916;BME280;41826;53.246;-6.670;2022-12-16T13:07:06;99619.88;;;-0.47;100.00
55916;BME280;41826;53.246;-6.670;2022-12-16T13:16:02;99599.66;;;-0.53;100.00
55916;BME280;41826;53.246;-6.670;2022-12-16T13:18:46;99576.88;;;-0.33;100.00
55916;BME280;41826;53.246;-6.670;2022-12-16T13:24:40;99570.69;;;-0.18;100.00
55916;BME280;41826;53.246;-6.670;2022-12-16T13:27:27;99564.25;;;-0.51;100.00
55916;BME280;41826;53.246;-6.670;2022-12-16T13:30:19;99565.66;;;-0.32;100.00
55916;BME280;41826;53.246;-6.670;2022-12-16T13:33:24;99550.47;;;-0.24;100.00
55916;BME280;41826;53.246;-6.670;2022-12-16T13:36:10;99544.50;;;-0.25;100.00
55916;BME280;41826;53.246;-6.670;2022-12-16T13:38:56;99533.47;;;-0.14;100.00
55916;BME280;41826;53.246;-6.670;2022-12-16T13:50:55;99492.81;;;0.03;100.00
55916;BME280;41826;53.246;-6.670;2022-12-16T13:53:43;99491.63;;;0.07;100.00
55916;BME280;41826;53.246;-6.670;2022-12-16T13:56:34;99478.44;;;-0.02;100.00
55916;BME280;41826;53.246;-6.670;2022-12-16T13:59:21;99467.63;;;-0.07;100.00
55916;BME280;41826;53.246;-6.670;2022-12-16T14:02:31;99439.25;;;-0.07;100.00
55916;BME280;41826;53.246;-6.670;2022-12-16T14:05:25;99430.16;;;0.01;100.00
55916;BME280;41826;53.246;-6.670;2022-12-16T14:08:22;99416.13;;;-0.08;100.00
55916;BME280;41826;53.246;-6.670;2022-12-16T14:11:21;99397.97;;;-0.07;100.00
55916;BME280;41826;53.246;-6.670;2022-12-16T14:14:13;99381.88;;;0.03;100.00
55916;BME280;41826;53.246;-6.670;2022-12-16T14:17:03;99379.28;;;0.03;100.00
55916;BME280;41826;53.246;-6.670;2022-12-16T14:20:12;99366.59;;;-0.01;100.00
55916;BME280;41826;53.246;-6.670;2022-12-16T14:26:02;99348.44;;;0.01;100.00
55916;BME280;41826;53.246;-6.670;2022-12-16T14:28:46;99336.13;;;0.05;100.00
55916;BME280;41826;53.246;-6.670;2022-12-16T14:31:36;99327.81;;;0.12;100.00
55916;BME280;41826;53.246;-6.670;2022-12-16T14:34:29;99316.91;;;0.09;100.00
55916;BME280;41826;53.246;-6.670;2022-12-16T14:37:21;99309.19;;;0.09;100.00
55916;BME280;41826;53.246;-6.670;2022-12-16T14:43:21;99282.47;;;0.21;100.00
55916;BME280;41826;53.246;-6.670;2022-12-16T14:46:14;99259.13;;;0.22;100.00
55916;BME280;41826;53.246;-6.670;2022-12-16T14:49:34;99244.69;;;0.20;100.00
55916;BME280;41826;53.246;-6.670;2022-12-16T14:52:25;99229.56;;;0.15;100.00
55916;BME280;41826;53.246;-6.670;2022-12-16T14:58:11;99219.59;;;0.11;100.00
55916;BME280;41826;53.246;-6.670;2022-12-16T15:00:59;99218.28;;;0.05;100.00
55916;BME280;41826;53.246;-6.670;2022-12-16T15:03:46;99190.25;;;0.12;100.00
55916;BME280;41826;53.246;-6.670;2022-12-16T15:06:33;99190.59;;;0.07;100.00
55916;BME280;41826;53.246;-6.670;2022-12-16T15:09:27;99181.31;;;0.05;100.00
55916;BME280;41826;53.246;-6.670;2022-12-16T15:12:14;99183.81;;;0.06;100.00
55916;BME280;41826;53.246;-6.670;2022-12-16T15:15:03;99174.44;;;0.05;100.00
55916;BME280;41826;53.246;-6.670;2022-12-16T15:17:53;99175.25;;;0.06;100.00
55916;BME280;41826;53.246;-6.670;2022-12-16T15:20:51;99152.13;;;0.04;100.00
55916;BME280;41826;53.246;-6.670;2022-12-16T15:23:41;99150.16;;;0.08;100.00
55916;BME280;41826;53.246;-6.670;2022-12-16T15:26:29;99147.69;;;0.06;100.00
55916;BME280;41826;53.246;-6.670;2022-12-16T15:29:42;99142.63;;;0.05;100.00
55916;BME280;41826;53.246;-6.670;2022-12-16T15:35:22;99124.22;;;-0.02;100.00
55916;BME280;41826;53.246;-6.670;2022-12-16T15:40:58;99128.44;;;-0.01;100.00
55916;BME280;41826;53.246;-6.670;2022-12-16T15:43:45;99121.19;;;0.04;100.00